sensor_id;sensor_type;location;lat;lon;timestamp;temperature;humidity
16517;DHT22;8371;52.272;9.746;2023-06-19T00:02:24;22.10;45.30
16517;DHT22;8371;52.272;9.746;2023-06-19T00:04:49;22.20;45.40
16517;DHT22;8371;52.272;9.746;2023-06-19T00:07:15;22.20;45.40
16517;DHT22;8371;52.272;9.746;2023-06-19T00:09:41;22.20;45.50
16517;DHT22;8371;52.272;9.746;2023-06-19T00:12:07;22.20;45.50
16517;DHT22;8371;52.272;9.746;2023-06-19T00:14:32;22.20;45.50
16517;DHT22;8371;52.272;9.746;2023-06-19T00:16:58;22.30;45.50
16517;DHT22;8371;52.272;9.746;2023-06-19T00:19:26;22.30;45.60
16517;DHT22;8371;52.272;9.746;2023-06-19T00:21:52;22.30;45.50
16517;DHT22;8371;52.272;9.746;2023-06-19T00:24:19;22.40;45.50
16517;DHT22;8371;52.272;9.746;2023-06-19T00:26:45;22.40;45.50
16517;DHT22;8371;52.272;9.746;2023-06-19T00:29:11;22.50;45.50
16517;DHT22;8371;52.272;9.746;2023-06-19T00:31:36;22.50;45.50
16517;DHT22;8371;52.272;9.746;2023-06-19T00:34:02;22.60;45.50
16517;DHT22;8371;52.272;9.746;2023-06-19T00:36:28;22.60;45.40
16517;DHT22;8371;52.272;9.746;2023-06-19T00:38:53;22.70;45.40
16517;DHT22;8371;52.272;9.746;2023-06-19T00:41:19;22.70;45.40
16517;DHT22;8371;52.272;9.746;2023-06-19T00:43:45;22.80;45.40
16517;DHT22;8371;52.272;9.746;2023-06-19T00:46:11;22.90;45.40
16517;DHT22;8371;52.272;9.746;2023-06-19T00:48:38;22.90;45.20
16517;DHT22;8371;52.272;9.746;2023-06-19T00:51:04;22.90;45.40
16517;DHT22;8371;52.272;9.746;2023-06-19T00:53:30;23.00;45.30
16517;DHT22;8371;52.272;9.746;2023-06-19T00:55:57;23.00;45.10
16517;DHT22;8371;52.272;9.746;2023-06-19T00:58:23;23.10;45.30
16517;DHT22;8371;52.272;9.746;2023-06-19T01:00:49;23.10;45.40
16517;DHT22;8371;52.272;9.746;2023-06-19T01:03:15;23.20;45.30
16517;DHT22;8371;52.272;9.746;2023-06-19T01:05:42;23.20;45.30
16517;DHT22;8371;52.272;9.746;2023-06-19T01:10:59;23.20;45.40
16517;DHT22;8371;52.272;9.746;2023-06-19T01:13:38;23.20;45.30
16517;DHT22;8371;52.272;9.746;2023-06-19T01:16:06;23.30;45.30
16517;DHT22;8371;52.272;9.746;2023-06-19T01:18:32;23.30;46.00
16517;DHT22;8371;52.272;9.746;2023-06-19T01:21:16;23.30;45.40
16517;DHT22;8371;52.272;9.746;2023-06-19T01:23:43;23.30;45.40
16517;DHT22;8371;52.272;9.746;2023-06-19T01:26:10;23.30;45.40
16517;DHT22;8371;52.272;9.746;2023-06-19T01:28:36;23.30;45.40
16517;DHT22;8371;52.272;9.746;2023-06-19T01:31:06;23.30;45.50
16517;DHT22;8371;52.272;9.746;2023-06-19T01:33:33;23.20;45.40
16517;DHT22;8371;52.272;9.746;2023-06-19T01:36:01;23.20;45.50
16517;DHT22;8371;52.272;9.746;2023-06-19T01:38:29;23.20;45.50
16517;DHT22;8371;52.272;9.746;2023-06-19T01:40:56;23.20;45.50
16517;DHT22;8371;52.272;9.746;2023-06-19T01:43:23;23.20;45.50
16517;DHT22;8371;52.272;9.746;2023-06-19T01:45:49;23.20;45.50
16517;DHT22;8371;52.272;9.746;2023-06-19T01:48:15;23.20;45.60
16517;DHT22;8371;52.272;9.746;2023-06-19T01:50:46;23.20;45.50
16517;DHT22;8371;52.272;9.746;2023-06-19T01:53:13;23.10;45.60
16517;DHT22;8371;52.272;9.746;2023-06-19T01:55:39;23.10;45.50
16517;DHT22;8371;52.272;9.746;2023-06-19T01:58:04;23.10;45.50
16517;DHT22;8371;52.272;9.746;2023-06-19T02:00:30;23.10;45.50
16517;DHT22;8371;52.272;9.746;2023-06-19T02:02:58;23.10;45.60
16517;DHT22;8371;52.272;9.746;2023-06-19T02:05:23;23.00;45.60
16517;DHT22;8371;52.272;9.746;2023-06-19T02:07:49;22.90;45.60
16517;DHT22;8371;52.272;9.746;2023-06-19T02:10:15;23.00;45.90
16517;DHT22;8371;52.272;9.746;2023-06-19T02:12:40;22.90;46.10
16517;DHT22;8371;52.272;9.746;2023-06-19T02:15:07;22.90;46.40
16517;DHT22;8371;52.272;9.746;2023-06-19T02:17:33;22.90;46.50
16517;DHT22;8371;52.272;9.746;2023-06-19T02:19:58;22.80;46.60
16517;DHT22;8371;52.272;9.746;2023-06-19T02:22:24;22.80;46.70
16517;DHT22;8371;52.272;9.746;2023-06-19T02:24:49;22.70;46.70
16517;DHT22;8371;52.272;9.746;2023-06-19T02:27:15;22.70;46.80
16517;DHT22;8371;52.272;9.746;2023-06-19T02:29:41;22.60;46.90
16517;DHT22;8371;52.272;9.746;2023-06-19T02:32:07;22.60;47.00
16517;DHT22;8371;52.272;9.746;2023-06-19T02:34:33;22.60;47.20
16517;DHT22;8371;52.272;9.746;2023-06-19T02:36:59;22.60;47.30
16517;DHT22;8371;52.272;9.746;2023-06-19T02:39:24;22.50;47.30
16517;DHT22;8371;52.272;9.746;2023-06-19T02:41:50;22.50;47.40
16517;DHT22;8371;52.272;9.746;2023-06-19T02:44:16;22.50;47.40
16517;DHT22;8371;52.272;9.746;2023-06-19T02:46:42;22.50;47.50
16517;DHT22;8371;52.272;9.746;2023-06-19T02:49:07;22.50;47.60
16517;DHT22;8371;52.272;9.746;2023-06-19T02:51:33;22.50;47.80
16517;DHT22;8371;52.272;9.746;2023-06-19T02:53:58;22.50;47.80
16517;DHT22;8371;52.272;9.746;2023-06-19T02:56:25;22.50;47.80
16517;DHT22;8371;52.272;9.746;2023-06-19T02:58:52;22.50;48.00
16517;DHT22;8371;52.272;9.746;2023-06-19T03:01:17;22.40;47.90
16517;DHT22;8371;52.272;9.746;2023-06-19T03:03:43;22.40;47.90
16517;DHT22;8371;52.272;9.746;2023-06-19T03:06:10;22.50;47.90
16517;DHT22;8371;52.272;9.746;2023-06-19T03:08:37;22.50;47.80
16517;DHT22;8371;52.272;9.746;2023-06-19T03:11:03;22.50;47.90
16517;DHT22;8371;52.272;9.746;2023-06-19T03:13:43;22.50;48.00
16517;DHT22;8371;52.272;9.746;2023-06-19T03:16:01;22.50;48.10
16517;DHT22;8371;52.272;9.746;2023-06-19T03:18:27;22.60;48.10
16517;DHT22;8371;52.272;9.746;2023-06-19T03:20:52;22.60;48.10
16517;DHT22;8371;52.272;9.746;2023-06-19T03:23:18;22.60;48.10
16517;DHT22;8371;52.272;9.746;2023-06-19T03:25:44;22.60;48.10
16517;DHT22;8371;52.272;9.746;2023-06-19T03:28:09;22.60;48.30
16517;DHT22;8371;52.272;9.746;2023-06-19T03:30:35;22.60;48.20
16517;DHT22;8371;52.272;9.746;2023-06-19T03:33:00;22.60;48.30
16517;DHT22;8371;52.272;9.746;2023-06-19T03:35:26;22.60;48.40
16517;DHT22;8371;52.272;9.746;2023-06-19T03:37:52;22.60;48.40
16517;DHT22;8371;52.272;9.746;2023-06-19T03:40:17;22.70;48.40
16517;DHT22;8371;52.272;9.746;2023-06-19T03:42:43;22.70;48.50
16517;DHT22;8371;52.272;9.746;2023-06-19T03:45:09;22.60;48.50
16517;DHT22;8371;52.272;9.746;2023-06-19T03:47:35;22.70;48.80
16517;DHT22;8371;52.272;9.746;2023-06-19T03:50:00;22.60;48.70
16517;DHT22;8371;52.272;9.746;2023-06-19T03:52:27;22.70;48.80
16517;DHT22;8371;52.272;9.746;2023-06-19T03:54:52;22.70;48.80
16517;DHT22;8371;52.272;9.746;2023-06-19T03:57:18;22.70;48.90
16517;DHT22;8371;52.272;9.746;2023-06-19T03:59:44;22.60;49.00
16517;DHT22;8371;52.272;9.746;2023-06-19T04:02:09;22.60;49.00
16517;DHT22;8371;52.272;9.746;2023-06-19T04:04:35;22.60;49.00
16517;DHT22;8371;52.272;9.746;2023-06-19T04:07:01;22.60;49.10
16517;DHT22;8371;52.272;9.746;2023-06-19T04:09:26;22.60;49.30
16517;DHT22;8371;52.272;9.746;2023-06-19T04:11:52;22.60;49.30
16517;DHT22;8371;52.272;9.746;2023-06-19T04:14:18;22.60;49.40
16517;DHT22;8371;52.272;9.746;2023-06-19T04:16:43;22.60;49.50
16517;DHT22;8371;52.272;9.746;2023-06-19T04:19:09;22.60;49.60
16517;DHT22;8371;52.272;9.746;2023-06-19T04:21:35;22.60;49.70
16517;DHT22;8371;52.272;9.746;2023-06-19T04:24:00;22.60;49.60
16517;DHT22;8371;52.272;9.746;2023-06-19T04:26:26;22.60;49.70
16517;DHT22;8371;52.272;9.746;2023-06-19T04:28:52;22.60;49.80
16517;DHT22;8371;52.272;9.746;2023-06-19T04:31:17;22.60;49.70
16517;DHT22;8371;52.272;9.746;2023-06-19T04:33:45;22.60;49.60
16517;DHT22;8371;52.272;9.746;2023-06-19T04:36:11;22.60;49.60
16517;DHT22;8371;52.272;9.746;2023-06-19T04:38:36;22.60;49.60
16517;DHT22;8371;52.272;9.746;2023-06-19T04:41:02;22.70;49.60
16517;DHT22;8371;52.272;9.746;2023-06-19T04:43:28;22.60;49.60
16517;DHT22;8371;52.272;9.746;2023-06-19T04:45:53;22.70;49.60
16517;DHT22;8371;52.272;9.746;2023-06-19T04:48:19;22.70;49.70
16517;DHT22;8371;52.272;9.746;2023-06-19T04:50:45;22.70;49.80
16517;DHT22;8371;52.272;9.746;2023-06-19T04:53:10;22.80;50.10
16517;DHT22;8371;52.272;9.746;2023-06-19T04:55:37;22.80;50.20
16517;DHT22;8371;52.272;9.746;2023-06-19T04:58:03;22.70;50.30
16517;DHT22;8371;52.272;9.746;2023-06-19T05:00:28;22.70;50.20
16517;DHT22;8371;52.272;9.746;2023-06-19T05:02:54;22.70;50.30
16517;DHT22;8371;52.272;9.746;2023-06-19T05:05:22;22.80;50.30
16517;DHT22;8371;52.272;9.746;2023-06-19T05:07:47;22.70;50.30
16517;DHT22;8371;52.272;9.746;2023-06-19T05:10:13;22.70;50.40
16517;DHT22;8371;52.272;9.746;2023-06-19T05:12:39;22.70;50.50
16517;DHT22;8371;52.272;9.746;2023-06-19T05:15:05;22.80;50.90
16517;DHT22;8371;52.272;9.746;2023-06-19T05:17:31;22.80;50.90
16517;DHT22;8371;52.272;9.746;2023-06-19T05:19:56;22.70;50.80
16517;DHT22;8371;52.272;9.746;2023-06-19T05:22:22;22.70;51.00
16517;DHT22;8371;52.272;9.746;2023-06-19T05:24:49;22.70;50.90
16517;DHT22;8371;52.272;9.746;2023-06-19T05:27:15;22.70;50.80
16517;DHT22;8371;52.272;9.746;2023-06-19T05:29:40;22.70;51.10
16517;DHT22;8371;52.272;9.746;2023-06-19T05:32:06;22.70;51.30
16517;DHT22;8371;52.272;9.746;2023-06-19T05:34:32;22.70;51.50
16517;DHT22;8371;52.272;9.746;2023-06-19T05:36:58;22.80;51.60
16517;DHT22;8371;52.272;9.746;2023-06-19T05:39:26;22.80;51.70
16517;DHT22;8371;52.272;9.746;2023-06-19T05:41:51;22.80;51.80
16517;DHT22;8371;52.272;9.746;2023-06-19T05:44:17;22.80;52.50
16517;DHT22;8371;52.272;9.746;2023-06-19T05:46:44;22.90;52.70
16517;DHT22;8371;52.272;9.746;2023-06-19T05:49:10;22.90;52.10
16517;DHT22;8371;52.272;9.746;2023-06-19T05:51:35;23.00;52.20
16517;DHT22;8371;52.272;9.746;2023-06-19T05:54:01;23.10;52.60
16517;DHT22;8371;52.272;9.746;2023-06-19T05:56:32;23.10;52.60
16517;DHT22;8371;52.272;9.746;2023-06-19T05:59:03;23.20;52.60
16517;DHT22;8371;52.272;9.746;2023-06-19T06:01:29;23.30;52.40
16517;DHT22;8371;52.272;9.746;2023-06-19T06:03:55;23.40;52.40
16517;DHT22;8371;52.272;9.746;2023-06-19T06:06:22;23.50;52.90
16517;DHT22;8371;52.272;9.746;2023-06-19T06:08:48;23.60;52.20
16517;DHT22;8371;52.272;9.746;2023-06-19T06:11:14;23.60;52.50
16517;DHT22;8371;52.272;9.746;2023-06-19T06:13:39;23.70;52.40
16517;DHT22;8371;52.272;9.746;2023-06-19T06:16:05;23.80;52.50
16517;DHT22;8371;52.272;9.746;2023-06-19T06:18:31;23.80;52.60
16517;DHT22;8371;52.272;9.746;2023-06-19T06:20:56;23.90;52.60
16517;DHT22;8371;52.272;9.746;2023-06-19T06:23:24;24.00;52.60
16517;DHT22;8371;52.272;9.746;2023-06-19T06:25:50;24.10;52.60
16517;DHT22;8371;52.272;9.746;2023-06-19T06:28:16;24.20;52.50
16517;DHT22;8371;52.272;9.746;2023-06-19T06:30:43;24.20;52.50
16517;DHT22;8371;52.272;9.746;2023-06-19T06:33:09;24.30;52.40
16517;DHT22;8371;52.272;9.746;2023-06-19T06:35:35;24.40;52.40
16517;DHT22;8371;52.272;9.746;2023-06-19T06:38:02;24.40;52.40
16517;DHT22;8371;52.272;9.746;2023-06-19T06:40:27;24.40;52.40
16517;DHT22;8371;52.272;9.746;2023-06-19T06:42:53;24.50;52.40
16517;DHT22;8371;52.272;9.746;2023-06-19T06:45:19;24.60;52.40
16517;DHT22;8371;52.272;9.746;2023-06-19T06:47:45;24.60;52.40
16517;DHT22;8371;52.272;9.746;2023-06-19T06:50:11;24.80;52.70
16517;DHT22;8371;52.272;9.746;2023-06-19T06:52:37;24.80;52.50
16517;DHT22;8371;52.272;9.746;2023-06-19T06:55:04;24.90;52.50
16517;DHT22;8371;52.272;9.746;2023-06-19T06:57:30;25.00;52.50
16517;DHT22;8371;52.272;9.746;2023-06-19T06:59:56;25.10;52.50
16517;DHT22;8371;52.272;9.746;2023-06-19T07:02:21;25.20;52.30
16517;DHT22;8371;52.272;9.746;2023-06-19T07:04:47;25.30;52.30
16517;DHT22;8371;52.272;9.746;2023-06-19T07:07:13;25.50;52.70
16517;DHT22;8371;52.272;9.746;2023-06-19T07:09:39;25.60;52.50
16517;DHT22;8371;52.272;9.746;2023-06-19T07:12:05;25.80;52.40
16517;DHT22;8371;52.272;9.746;2023-06-19T07:14:32;26.00;52.50
16517;DHT22;8371;52.272;9.746;2023-06-19T07:16:58;26.20;52.40
16517;DHT22;8371;52.272;9.746;2023-06-19T07:19:24;26.40;52.20
16517;DHT22;8371;52.272;9.746;2023-06-19T07:21:50;26.50;52.00
16517;DHT22;8371;52.272;9.746;2023-06-19T07:24:16;26.80;52.10
16517;DHT22;8371;52.272;9.746;2023-06-19T07:26:42;27.00;52.20
16517;DHT22;8371;52.272;9.746;2023-06-19T07:29:08;27.20;52.20
16517;DHT22;8371;52.272;9.746;2023-06-19T07:31:34;27.40;52.10
16517;DHT22;8371;52.272;9.746;2023-06-19T07:33:59;27.60;51.70
16517;DHT22;8371;52.272;9.746;2023-06-19T07:36:25;27.80;51.90
16517;DHT22;8371;52.272;9.746;2023-06-19T07:38:51;28.10;51.90
16517;DHT22;8371;52.272;9.746;2023-06-19T07:41:17;28.30;51.70
16517;DHT22;8371;52.272;9.746;2023-06-19T07:43:43;28.60;51.60
16517;DHT22;8371;52.272;9.746;2023-06-19T07:46:09;28.90;51.80
16517;DHT22;8371;52.272;9.746;2023-06-19T07:48:35;29.20;51.30
16517;DHT22;8371;52.272;9.746;2023-06-19T07:51:01;29.50;51.20
16517;DHT22;8371;52.272;9.746;2023-06-19T07:53:26;29.80;50.80
16517;DHT22;8371;52.272;9.746;2023-06-19T07:55:52;30.10;50.40
16517;DHT22;8371;52.272;9.746;2023-06-19T07:58:18;30.40;50.10
16517;DHT22;8371;52.272;9.746;2023-06-19T08:00:44;30.70;49.80
16517;DHT22;8371;52.272;9.746;2023-06-19T08:03:10;31.00;49.20
16517;DHT22;8371;52.272;9.746;2023-06-19T08:05:36;31.30;49.40
16517;DHT22;8371;52.272;9.746;2023-06-19T08:08:02;31.60;48.50
16517;DHT22;8371;52.272;9.746;2023-06-19T08:10:28;31.80;48.30
16517;DHT22;8371;52.272;9.746;2023-06-19T08:12:53;32.10;47.90
16517;DHT22;8371;52.272;9.746;2023-06-19T08:15:19;32.30;47.60
16517;DHT22;8371;52.272;9.746;2023-06-19T08:17:45;32.50;47.30
16517;DHT22;8371;52.272;9.746;2023-06-19T08:20:10;32.80;46.90
16517;DHT22;8371;52.272;9.746;2023-06-19T08:22:36;33.00;46.40
16517;DHT22;8371;52.272;9.746;2023-06-19T08:25:04;33.20;46.00
16517;DHT22;8371;52.272;9.746;2023-06-19T08:27:30;33.40;46.00
16517;DHT22;8371;52.272;9.746;2023-06-19T08:29:55;33.50;45.70
16517;DHT22;8371;52.272;9.746;2023-06-19T08:32:21;33.70;45.80
16517;DHT22;8371;52.272;9.746;2023-06-19T08:34:47;33.90;45.40
16517;DHT22;8371;52.272;9.746;2023-06-19T08:37:13;34.10;45.10
16517;DHT22;8371;52.272;9.746;2023-06-19T08:39:38;34.20;44.80
16517;DHT22;8371;52.272;9.746;2023-06-19T08:42:08;34.40;44.60
16517;DHT22;8371;52.272;9.746;2023-06-19T08:44:35;34.40;43.80
16517;DHT22;8371;52.272;9.746;2023-06-19T08:47:02;34.50;43.90
16517;DHT22;8371;52.272;9.746;2023-06-19T08:49:34;34.50;43.60
16517;DHT22;8371;52.272;9.746;2023-06-19T08:52:05;34.60;43.50
16517;DHT22;8371;52.272;9.746;2023-06-19T08:54:29;34.60;43.60
16517;DHT22;8371;52.272;9.746;2023-06-19T08:56:55;34.60;43.70
16517;DHT22;8371;52.272;9.746;2023-06-19T08:59:20;34.60;43.40
16517;DHT22;8371;52.272;9.746;2023-06-19T09:01:50;34.70;43.40
16517;DHT22;8371;52.272;9.746;2023-06-19T09:04:27;34.70;43.50
16517;DHT22;8371;52.272;9.746;2023-06-19T09:09:24;34.80;43.10
16517;DHT22;8371;52.272;9.746;2023-06-19T09:14:44;35.00;43.00
16517;DHT22;8371;52.272;9.746;2023-06-19T09:17:19;35.10;42.90
16517;DHT22;8371;52.272;9.746;2023-06-19T09:19:49;35.30;42.70
16517;DHT22;8371;52.272;9.746;2023-06-19T09:22:17;35.40;42.60
16517;DHT22;8371;52.272;9.746;2023-06-19T09:24:44;35.50;42.10
16517;DHT22;8371;52.272;9.746;2023-06-19T09:27:11;35.60;42.20
16517;DHT22;8371;52.272;9.746;2023-06-19T09:29:42;35.60;41.90
16517;DHT22;8371;52.272;9.746;2023-06-19T09:32:19;35.60;41.60
16517;DHT22;8371;52.272;9.746;2023-06-19T09:34:46;35.60;41.50
16517;DHT22;8371;52.272;9.746;2023-06-19T09:37:12;35.70;41.60
16517;DHT22;8371;52.272;9.746;2023-06-19T09:39:38;35.70;41.70
16517;DHT22;8371;52.272;9.746;2023-06-19T09:42:06;35.80;41.20
16517;DHT22;8371;52.272;9.746;2023-06-19T09:44:41;35.80;41.20
16517;DHT22;8371;52.272;9.746;2023-06-19T09:47:15;35.80;40.90
16517;DHT22;8371;52.272;9.746;2023-06-19T09:49:47;35.80;40.80
16517;DHT22;8371;52.272;9.746;2023-06-19T09:52:12;35.70;40.60
16517;DHT22;8371;52.272;9.746;2023-06-19T09:54:39;35.70;40.50
16517;DHT22;8371;52.272;9.746;2023-06-19T09:57:05;35.60;40.40
16517;DHT22;8371;52.272;9.746;2023-06-19T09:59:31;35.60;40.50
16517;DHT22;8371;52.272;9.746;2023-06-19T10:01:57;35.50;40.50
16517;DHT22;8371;52.272;9.746;2023-06-19T10:04:23;35.50;40.40
16517;DHT22;8371;52.272;9.746;2023-06-19T10:06:49;35.50;40.30
16517;DHT22;8371;52.272;9.746;2023-06-19T10:09:16;35.50;40.30
16517;DHT22;8371;52.272;9.746;2023-06-19T10:11:50;35.30;40.10
16517;DHT22;8371;52.272;9.746;2023-06-19T10:14:21;35.30;40.80
16517;DHT22;8371;52.272;9.746;2023-06-19T10:16:46;35.30;40.10
16517;DHT22;8371;52.272;9.746;2023-06-19T10:19:17;35.20;40.10
16517;DHT22;8371;52.272;9.746;2023-06-19T10:21:47;35.10;40.10
16517;DHT22;8371;52.272;9.746;2023-06-19T10:24:15;35.10;40.20
16517;DHT22;8371;52.272;9.746;2023-06-19T10:26:43;35.10;40.10
16517;DHT22;8371;52.272;9.746;2023-06-19T10:29:16;35.10;40.20
16517;DHT22;8371;52.272;9.746;2023-06-19T10:31:42;35.00;40.10
16517;DHT22;8371;52.272;9.746;2023-06-19T10:34:08;34.90;40.50
16517;DHT22;8371;52.272;9.746;2023-06-19T10:36:34;34.90;40.50
16517;DHT22;8371;52.272;9.746;2023-06-19T10:39:00;35.00;40.50
16517;DHT22;8371;52.272;9.746;2023-06-19T10:41:25;35.00;40.90
16517;DHT22;8371;52.272;9.746;2023-06-19T10:43:57;35.10;40.90
16517;DHT22;8371;52.272;9.746;2023-06-19T10:46:24;35.20;40.50
16517;DHT22;8371;52.272;9.746;2023-06-19T10:48:50;35.40;40.70
16517;DHT22;8371;52.272;9.746;2023-06-19T10:51:19;35.50;40.70
16517;DHT22;8371;52.272;9.746;2023-06-19T10:53:45;35.50;40.40
16517;DHT22;8371;52.272;9.746;2023-06-19T10:56:11;35.60;40.40
16517;DHT22;8371;52.272;9.746;2023-06-19T10:58:37;35.60;40.60
16517;DHT22;8371;52.272;9.746;2023-06-19T11:01:02;35.70;40.50
16517;DHT22;8371;52.272;9.746;2023-06-19T11:03:29;35.90;40.50
16517;DHT22;8371;52.272;9.746;2023-06-19T11:05:56;36.00;40.20
16517;DHT22;8371;52.272;9.746;2023-06-19T11:08:22;36.00;40.30
16517;DHT22;8371;52.272;9.746;2023-06-19T11:10:49;36.20;40.00
16517;DHT22;8371;52.272;9.746;2023-06-19T11:13:19;36.20;39.70
16517;DHT22;8371;52.272;9.746;2023-06-19T11:15:47;36.20;39.30
16517;DHT22;8371;52.272;9.746;2023-06-19T11:18:16;36.10;39.10
16517;DHT22;8371;52.272;9.746;2023-06-19T11:20:51;36.10;39.20
16517;DHT22;8371;52.272;9.746;2023-06-19T11:23:28;36.10;39.00
16517;DHT22;8371;52.272;9.746;2023-06-19T11:26:02;36.10;38.80
16517;DHT22;8371;52.272;9.746;2023-06-19T11:28:29;36.00;38.80
16517;DHT22;8371;52.272;9.746;2023-06-19T11:31:00;36.10;38.90
16517;DHT22;8371;52.272;9.746;2023-06-19T11:33:26;36.10;38.90
16517;DHT22;8371;52.272;9.746;2023-06-19T11:35:53;36.10;38.80
16517;DHT22;8371;52.272;9.746;2023-06-19T11:38:20;36.10;38.70
16517;DHT22;8371;52.272;9.746;2023-06-19T11:40:47;36.10;38.80
16517;DHT22;8371;52.272;9.746;2023-06-19T11:43:30;36.30;38.80
16517;DHT22;8371;52.272;9.746;2023-06-19T11:46:03;36.30;38.40
16517;DHT22;8371;52.272;9.746;2023-06-19T11:48:29;36.40;38.40
16517;DHT22;8371;52.272;9.746;2023-06-19T11:50:55;36.50;38.00
16517;DHT22;8371;52.272;9.746;2023-06-19T11:53:22;36.40;38.20
16517;DHT22;8371;52.272;9.746;2023-06-19T11:55:48;36.70;38.30
16517;DHT22;8371;52.272;9.746;2023-06-19T11:58:14;36.80;38.10
16517;DHT22;8371;52.272;9.746;2023-06-19T12:00:44;36.90;37.70
16517;DHT22;8371;52.272;9.746;2023-06-19T12:03:10;36.90;37.50
16517;DHT22;8371;52.272;9.746;2023-06-19T12:05:37;36.90;37.40
16517;DHT22;8371;52.272;9.746;2023-06-19T12:08:03;36.90;37.40
16517;DHT22;8371;52.272;9.746;2023-06-19T12:10:30;36.90;37.50
16517;DHT22;8371;52.272;9.746;2023-06-19T12:12:56;36.90;37.50
16517;DHT22;8371;52.272;9.746;2023-06-19T12:15:22;36.90;37.50
16517;DHT22;8371;52.272;9.746;2023-06-19T12:17:48;36.80;37.40
16517;DHT22;8371;52.272;9.746;2023-06-19T12:20:14;36.80;38.10
16517;DHT22;8371;52.272;9.746;2023-06-19T12:22:40;36.80;37.50
16517;DHT22;8371;52.272;9.746;2023-06-19T12:25:07;36.80;37.30
16517;DHT22;8371;52.272;9.746;2023-06-19T12:27:32;36.80;37.30
16517;DHT22;8371;52.272;9.746;2023-06-19T12:29:58;36.80;37.10
16517;DHT22;8371;52.272;9.746;2023-06-19T12:32:24;36.80;37.30
16517;DHT22;8371;52.272;9.746;2023-06-19T12:34:50;36.70;37.20
16517;DHT22;8371;52.272;9.746;2023-06-19T12:37:17;36.70;37.30
16517;DHT22;8371;52.272;9.746;2023-06-19T12:39:44;36.70;37.10
16517;DHT22;8371;52.272;9.746;2023-06-19T12:42:09;36.80;37.40
16517;DHT22;8371;52.272;9.746;2023-06-19T12:44:42;36.80;37.00
16517;DHT22;8371;52.272;9.746;2023-06-19T12:47:08;36.80;37.20
16517;DHT22;8371;52.272;9.746;2023-06-19T12:49:34;36.80;37.30
16517;DHT22;8371;52.272;9.746;2023-06-19T12:51:59;36.90;37.10
16517;DHT22;8371;52.272;9.746;2023-06-19T12:54:26;36.90;36.70
16517;DHT22;8371;52.272;9.746;2023-06-19T12:56:52;36.80;36.70
16517;DHT22;8371;52.272;9.746;2023-06-19T12:59:18;36.90;37.00
16517;DHT22;8371;52.272;9.746;2023-06-19T13:01:44;36.90;36.80
16517;DHT22;8371;52.272;9.746;2023-06-19T13:04:11;37.00;36.80
16517;DHT22;8371;52.272;9.746;2023-06-19T13:06:37;37.00;36.70
16517;DHT22;8371;52.272;9.746;2023-06-19T13:09:04;37.00;36.40
16517;DHT22;8371;52.272;9.746;2023-06-19T13:11:30;36.90;36.30
16517;DHT22;8371;52.272;9.746;2023-06-19T13:13:56;36.90;36.30
16517;DHT22;8371;52.272;9.746;2023-06-19T13:16:22;36.80;36.40
16517;DHT22;8371;52.272;9.746;2023-06-19T13:18:50;36.90;36.40
16517;DHT22;8371;52.272;9.746;2023-06-19T13:21:15;36.80;36.20
16517;DHT22;8371;52.272;9.746;2023-06-19T13:23:41;36.70;36.10
16517;DHT22;8371;52.272;9.746;2023-06-19T13:26:07;36.70;36.20
16517;DHT22;8371;52.272;9.746;2023-06-19T13:28:33;36.60;36.20
16517;DHT22;8371;52.272;9.746;2023-06-19T13:30:58;36.50;36.10
16517;DHT22;8371;52.272;9.746;2023-06-19T13:33:25;36.40;36.20
16517;DHT22;8371;52.272;9.746;2023-06-19T13:35:51;36.30;36.40
16517;DHT22;8371;52.272;9.746;2023-06-19T13:38:17;36.40;36.50
16517;DHT22;8371;52.272;9.746;2023-06-19T13:40:44;36.30;36.70
16517;DHT22;8371;52.272;9.746;2023-06-19T13:43:10;36.30;36.50
16517;DHT22;8371;52.272;9.746;2023-06-19T13:45:36;36.40;36.40
16517;DHT22;8371;52.272;9.746;2023-06-19T13:48:04;36.40;36.40
16517;DHT22;8371;52.272;9.746;2023-06-19T13:50:31;36.40;35.80
16517;DHT22;8371;52.272;9.746;2023-06-19T13:52:58;36.40;36.20
16517;DHT22;8371;52.272;9.746;2023-06-19T13:55:24;36.50;36.20
16517;DHT22;8371;52.272;9.746;2023-06-19T13:57:50;36.50;36.20
16517;DHT22;8371;52.272;9.746;2023-06-19T14:00:16;36.50;36.30
16517;DHT22;8371;52.272;9.746;2023-06-19T14:02:42;36.60;36.20
16517;DHT22;8371;52.272;9.746;2023-06-19T14:05:08;36.60;35.90
16517;DHT22;8371;52.272;9.746;2023-06-19T14:07:35;36.60;35.90
16517;DHT22;8371;52.272;9.746;2023-06-19T14:10:03;36.60;35.40
16517;DHT22;8371;52.272;9.746;2023-06-19T14:12:29;36.60;35.60
16517;DHT22;8371;52.272;9.746;2023-06-19T14:14:56;36.60;35.30
16517;DHT22;8371;52.272;9.746;2023-06-19T14:17:22;36.50;35.30
16517;DHT22;8371;52.272;9.746;2023-06-19T14:19:48;36.50;35.30
16517;DHT22;8371;52.272;9.746;2023-06-19T14:22:14;36.50;35.50
16517;DHT22;8371;52.272;9.746;2023-06-19T14:24:39;36.50;35.30
16517;DHT22;8371;52.272;9.746;2023-06-19T14:27:05;36.40;35.10
16517;DHT22;8371;52.272;9.746;2023-06-19T14:29:31;36.30;35.60
16517;DHT22;8371;52.272;9.746;2023-06-19T14:31:57;36.20;35.10
16517;DHT22;8371;52.272;9.746;2023-06-19T14:34:22;36.10;35.20
16517;DHT22;8371;52.272;9.746;2023-06-19T14:36:48;36.00;35.30
16517;DHT22;8371;52.272;9.746;2023-06-19T14:39:14;36.00;35.70
16517;DHT22;8371;52.272;9.746;2023-06-19T14:41:40;35.90;35.60
16517;DHT22;8371;52.272;9.746;2023-06-19T14:44:06;35.90;35.80
16517;DHT22;8371;52.272;9.746;2023-06-19T14:46:31;36.00;35.90
16517;DHT22;8371;52.272;9.746;2023-06-19T14:48:58;35.90;35.90
16517;DHT22;8371;52.272;9.746;2023-06-19T14:51:26;35.80;35.70
16517;DHT22;8371;52.272;9.746;2023-06-19T14:53:52;35.80;35.80
16517;DHT22;8371;52.272;9.746;2023-06-19T14:56:18;35.70;35.80
16517;DHT22;8371;52.272;9.746;2023-06-19T14:58:44;35.70;35.60
16517;DHT22;8371;52.272;9.746;2023-06-19T15:01:09;35.60;35.50
16517;DHT22;8371;52.272;9.746;2023-06-19T15:03:36;35.40;35.60
16517;DHT22;8371;52.272;9.746;2023-06-19T15:06:03;35.30;35.90
16517;DHT22;8371;52.272;9.746;2023-06-19T15:08:29;35.20;36.10
16517;DHT22;8371;52.272;9.746;2023-06-19T15:10:56;35.10;36.30
16517;DHT22;8371;52.272;9.746;2023-06-19T15:13:23;35.00;37.20
16517;DHT22;8371;52.272;9.746;2023-06-19T15:15:49;35.00;36.50
16517;DHT22;8371;52.272;9.746;2023-06-19T15:18:16;34.90;36.50
16517;DHT22;8371;52.272;9.746;2023-06-19T15:20:42;34.90;36.50
16517;DHT22;8371;52.272;9.746;2023-06-19T15:23:07;35.00;36.40
16517;DHT22;8371;52.272;9.746;2023-06-19T15:25:33;35.00;36.20
16517;DHT22;8371;52.272;9.746;2023-06-19T15:27:59;34.90;36.10
16517;DHT22;8371;52.272;9.746;2023-06-19T15:30:25;34.80;36.30
16517;DHT22;8371;52.272;9.746;2023-06-19T15:32:51;34.80;36.60
16517;DHT22;8371;52.272;9.746;2023-06-19T15:35:16;34.80;36.50
16517;DHT22;8371;52.272;9.746;2023-06-19T15:37:42;34.70;36.80
16517;DHT22;8371;52.272;9.746;2023-06-19T15:40:08;34.70;36.80
16517;DHT22;8371;52.272;9.746;2023-06-19T15:42:34;34.70;36.60
16517;DHT22;8371;52.272;9.746;2023-06-19T15:45:00;34.80;36.60
16517;DHT22;8371;52.272;9.746;2023-06-19T15:47:26;34.80;36.70
16517;DHT22;8371;52.272;9.746;2023-06-19T15:49:51;34.80;36.70